createdAt,value
2016-12-11T00:01:46.717Z,0
2016-12-11T00:02:28.432Z,0
2016-12-11T00:03:10.105Z,0
2016-12-11T00:03:51.802Z,0
2016-12-11T00:04:33.583Z,0
2016-12-11T00:05:15.332Z,0
2016-12-11T00:05:57.084Z,0
2016-12-11T00:06:38.691Z,0
2016-12-11T00:07:20.251Z,0
2016-12-11T00:08:01.926Z,0
2016-12-11T00:08:43.503Z,0
2016-12-11T00:10:43.480Z,0
2016-12-11T00:11:25.131Z,0
2016-12-11T00:12:06.738Z,0
2016-12-11T00:16:37.523Z,0
2016-12-11T00:17:19.447Z,0
2016-12-11T00:18:00.947Z,0
2016-12-11T00:20:31.813Z,0
2016-12-11T00:21:13.509Z,0
2016-12-11T00:23:44.357Z,0
2016-12-11T00:24:25.797Z,0
2016-12-11T00:25:07.152Z,0
2016-12-11T00:25:48.926Z,0
2016-12-11T00:26:30.292Z,0
2016-12-11T00:27:11.625Z,0
2016-12-11T00:27:53.310Z,0
2016-12-11T00:28:34.944Z,0
2016-12-11T00:29:16.550Z,0
2016-12-11T00:31:52.975Z,0
2016-12-11T00:32:34.482Z,0
2016-12-11T00:33:16.049Z,0
2016-12-11T00:35:31.491Z,0
2016-12-11T00:36:12.894Z,0
2016-12-11T00:38:12.979Z,0
2016-12-11T00:38:54.503Z,0
2016-12-11T00:39:36.156Z,0
2016-12-11T00:40:17.985Z,0
2016-12-11T00:40:59.451Z,0
2016-12-11T00:42:59.651Z,0
2016-12-11T00:43:41.107Z,0
2016-12-11T00:45:41.247Z,0
2016-12-11T00:46:22.981Z,0
2016-12-11T00:48:53.990Z,0
2016-12-11T00:49:35.543Z,0
2016-12-11T00:50:17.249Z,0
2016-12-11T00:52:48.179Z,0
2016-12-11T00:53:29.793Z,0
2016-12-11T00:54:11.424Z,0
2016-12-11T00:54:53.087Z,0
2016-12-11T00:55:34.601Z,0
2016-12-11T00:57:34.505Z,0
2016-12-11T00:58:16.191Z,0
2016-12-11T00:58:58.031Z,0
2016-12-11T00:59:39.652Z,0
2016-12-11T01:00:21.260Z,0
2016-12-11T01:02:21.128Z,0
2016-12-11T01:03:02.887Z,0
2016-12-11T01:03:44.426Z,0
2016-12-11T01:04:25.936Z,0
2016-12-11T01:05:07.514Z,0
2016-12-11T01:05:49.172Z,0
2016-12-11T01:08:04.281Z,0
2016-12-11T01:08:45.990Z,0
2016-12-11T01:09:27.625Z,0
2016-12-11T01:10:09.274Z,0
2016-12-11T01:10:50.959Z,0
2016-12-11T01:11:32.593Z,0
2016-12-11T01:12:14.143Z,0
2016-12-11T01:12:55.888Z,0
2016-12-11T01:13:37.559Z,0
2016-12-11T01:14:19.243Z,0
2016-12-11T01:15:00.980Z,0
2016-12-11T01:15:42.738Z,0
2016-12-11T01:16:24.517Z,0
2016-12-11T01:17:06.249Z,0
2016-12-11T01:17:48.030Z,0
2016-12-11T01:18:29.788Z,0
2016-12-11T01:19:11.500Z,0
2016-12-11T01:19:53.213Z,0
2016-12-11T01:20:34.999Z,0
2016-12-11T01:21:16.760Z,0
2016-12-11T01:21:58.490Z,0
2016-12-11T01:22:40.184Z,0
2016-12-11T01:23:21.968Z,0
2016-12-11T01:24:03.757Z,0
2016-12-11T01:24:45.483Z,0
2016-12-11T01:25:27.252Z,0
2016-12-11T01:26:09.013Z,0
2016-12-11T01:26:50.759Z,0
2016-12-11T01:27:32.515Z,0
2016-12-11T01:28:14.284Z,0
2016-12-11T01:28:56.027Z,0
2016-12-11T01:29:37.776Z,0
2016-12-11T01:30:19.515Z,0
2016-12-11T01:31:01.282Z,0
2016-12-11T01:31:42.949Z,0
2016-12-11T01:32:24.722Z,0
2016-12-11T01:33:06.366Z,0
2016-12-11T01:33:48.074Z,0
2016-12-11T01:34:29.848Z,0
2016-12-11T01:35:11.432Z,0
2016-12-11T01:35:53.169Z,0
2016-12-11T01:36:34.873Z,0
2016-12-11T01:37:16.681Z,0
2016-12-11T01:37:58.315Z,0
2016-12-11T01:38:40.148Z,0
2016-12-11T01:39:21.915Z,0
2016-12-11T01:40:03.664Z,0
2016-12-11T01:40:45.432Z,0
2016-12-11T01:41:27.159Z,0
2016-12-11T01:42:08.904Z,0
2016-12-11T01:42:50.595Z,0
2016-12-11T01:43:32.227Z,0
2016-12-11T01:44:13.921Z,0
2016-12-11T01:44:55.540Z,0
2016-12-11T01:45:37.280Z,0
2016-12-11T01:46:18.927Z,0
2016-12-11T01:47:00.637Z,0
2016-12-11T01:47:42.269Z,0
2016-12-11T01:48:23.868Z,0
2016-12-11T01:49:05.620Z,0
2016-12-11T01:49:47.301Z,0
2016-12-11T01:50:28.887Z,0
2016-12-11T01:51:10.091Z,0
2016-12-11T01:51:51.620Z,0
2016-12-11T01:52:33.230Z,0
2016-12-11T01:53:14.928Z,0
2016-12-11T01:53:56.676Z,0
2016-12-11T01:54:38.452Z,0
2016-12-11T01:55:20.144Z,0
2016-12-11T01:56:01.902Z,0
2016-12-11T01:56:43.639Z,0
2016-12-11T01:57:25.373Z,0
2016-12-11T01:58:07.140Z,0
2016-12-11T01:58:48.892Z,0
2016-12-11T01:59:30.666Z,0
2016-12-11T02:00:12.372Z,0
2016-12-11T02:00:53.607Z,0
2016-12-11T02:01:34.134Z,0
2016-12-11T02:02:14.683Z,0
2016-12-11T02:02:55.210Z,0
2016-12-11T02:03:35.740Z,0
2016-12-11T02:04:16.274Z,0
2016-12-11T02:04:56.818Z,0
2016-12-11T02:05:37.334Z,0
2016-12-11T02:06:17.862Z,0
2016-12-11T02:06:58.392Z,0
2016-12-11T02:07:38.925Z,0
2016-12-11T02:08:19.469Z,0
2016-12-11T02:09:00.007Z,0
2016-12-11T02:09:40.540Z,0
2016-12-11T02:10:21.067Z,0
2016-12-11T02:11:01.606Z,0
2016-12-11T02:11:42.145Z,0
2016-12-11T02:12:22.680Z,0
2016-12-11T02:13:03.224Z,0
2016-12-11T02:13:43.768Z,0
2016-12-11T02:14:24.299Z,0
2016-12-11T02:15:04.839Z,0
2016-12-11T02:15:45.370Z,0
2016-12-11T02:16:25.902Z,0
2016-12-11T02:17:06.430Z,0
2016-12-11T02:17:46.948Z,0
2016-12-11T02:18:27.491Z,0
2016-12-11T02:19:08.014Z,0
2016-12-11T02:19:48.550Z,0
2016-12-11T02:20:29.085Z,0
2016-12-11T02:21:09.627Z,0
2016-12-11T02:21:50.167Z,0
2016-12-11T02:22:30.703Z,0
2016-12-11T02:23:11.243Z,0
2016-12-11T02:23:51.781Z,0
2016-12-11T02:24:32.317Z,0
2016-12-11T02:25:12.843Z,0
2016-12-11T02:25:53.383Z,0
2016-12-11T02:26:33.906Z,0
2016-12-11T02:27:14.447Z,0
2016-12-11T02:27:54.979Z,0
2016-12-11T02:28:35.520Z,0
2016-12-11T02:29:16.051Z,0
2016-12-11T02:29:56.585Z,0
2016-12-11T02:30:37.119Z,0
2016-12-11T02:31:17.656Z,0
2016-12-11T02:31:58.199Z,0
2016-12-11T02:32:38.729Z,0
2016-12-11T02:33:19.273Z,0
2016-12-11T02:33:59.804Z,0
2016-12-11T02:34:40.341Z,0
2016-12-11T02:35:20.873Z,0
2016-12-11T02:36:01.406Z,0
2016-12-11T02:36:41.951Z,0
2016-12-11T02:37:22.484Z,0
2016-12-11T02:38:03.021Z,0
2016-12-11T02:38:43.556Z,0
2016-12-11T02:39:24.094Z,0
2016-12-11T02:40:04.629Z,0
2016-12-11T02:40:45.169Z,0
2016-12-11T02:41:25.708Z,0
2016-12-11T02:42:06.238Z,0
2016-12-11T02:42:46.776Z,0
2016-12-11T02:43:27.307Z,0
2016-12-11T02:44:07.841Z,0
2016-12-11T02:44:48.380Z,0
2016-12-11T02:45:29.803Z,0
2016-12-11T02:46:10.337Z,0
2016-12-11T02:46:50.867Z,0
2016-12-11T02:47:31.399Z,0
2016-12-11T02:48:11.933Z,0
2016-12-11T02:48:52.471Z,0
2016-12-11T02:49:32.996Z,0
2016-12-11T02:50:13.532Z,0
2016-12-11T02:50:54.068Z,0
2016-12-11T02:51:34.607Z,0
2016-12-11T02:52:15.145Z,0
2016-12-11T02:52:55.682Z,0
2016-12-11T02:53:36.216Z,0
2016-12-11T02:54:16.762Z,0
2016-12-11T02:54:57.302Z,0
2016-12-11T02:55:37.837Z,0
2016-12-11T02:56:18.370Z,0
2016-12-11T02:56:58.915Z,0
2016-12-11T02:57:39.448Z,0
2016-12-11T02:58:19.983Z,0
2016-12-11T02:59:00.520Z,0
2016-12-11T02:59:41.056Z,0
2016-12-11T03:00:21.590Z,0
2016-12-11T03:01:02.126Z,0
2016-12-11T03:01:42.648Z,0
2016-12-11T03:02:23.187Z,0
2016-12-11T03:03:03.726Z,0
2016-12-11T03:03:44.261Z,0
2016-12-11T03:04:24.790Z,0
2016-12-11T03:05:05.322Z,0
2016-12-11T03:05:45.859Z,0
2016-12-11T03:06:26.396Z,0
2016-12-11T03:07:06.926Z,0
2016-12-11T03:07:47.467Z,0
2016-12-11T03:08:28.000Z,0
2016-12-11T03:09:08.534Z,0
2016-12-11T03:09:49.067Z,0
2016-12-11T03:10:29.604Z,0
2016-12-11T03:11:10.140Z,0
2016-12-11T03:11:50.676Z,0
2016-12-11T03:12:31.216Z,0
2016-12-11T03:13:11.747Z,0
2016-12-11T03:13:52.284Z,0
2016-12-11T03:14:32.819Z,0
2016-12-11T03:15:13.350Z,0
2016-12-11T03:15:53.881Z,0
2016-12-11T03:16:34.423Z,0
2016-12-11T03:17:14.959Z,0
2016-12-11T03:17:55.497Z,0
2016-12-11T03:18:36.031Z,0
2016-12-11T03:19:16.569Z,0
2016-12-11T03:19:57.104Z,0
2016-12-11T03:20:37.637Z,0
2016-12-11T03:21:18.173Z,0
2016-12-11T03:21:58.706Z,0
2016-12-11T03:22:39.245Z,0
2016-12-11T03:23:19.804Z,0
2016-12-11T03:24:00.338Z,0
2016-12-11T03:24:40.870Z,0
2016-12-11T03:25:21.406Z,0
2016-12-11T03:26:01.939Z,0
2016-12-11T03:26:42.487Z,0
2016-12-11T03:27:23.028Z,0
2016-12-11T03:28:03.565Z,0
2016-12-11T03:28:44.097Z,0
2016-12-11T03:29:24.629Z,0
2016-12-11T03:30:05.165Z,0
2016-12-11T03:30:45.706Z,0
2016-12-11T03:31:26.244Z,0
2016-12-11T03:32:06.772Z,0
2016-12-11T03:32:47.318Z,0
2016-12-11T03:33:27.850Z,0
2016-12-11T03:34:08.383Z,0
2016-12-11T03:34:48.920Z,0
2016-12-11T03:35:29.460Z,0
2016-12-11T03:36:09.999Z,0
2016-12-11T03:36:50.521Z,0
2016-12-11T03:37:31.063Z,0
2016-12-11T03:38:11.607Z,0
2016-12-11T03:38:52.129Z,0
2016-12-11T03:39:32.683Z,0
2016-12-11T03:40:13.221Z,0
2016-12-11T03:40:53.750Z,0
2016-12-11T03:41:34.276Z,0
2016-12-11T03:42:14.808Z,0
2016-12-11T03:42:55.343Z,0
2016-12-11T03:43:35.877Z,0
2016-12-11T03:44:16.427Z,0
2016-12-11T03:44:56.959Z,0
2016-12-11T03:45:37.505Z,0
2016-12-11T03:46:18.035Z,0
2016-12-11T03:46:58.571Z,0
2016-12-11T03:47:39.112Z,0
2016-12-11T03:48:19.648Z,0
2016-12-11T03:49:00.189Z,0
2016-12-11T03:49:40.716Z,0
2016-12-11T03:50:21.264Z,0
2016-12-11T03:51:01.798Z,0
2016-12-11T03:51:42.330Z,0
2016-12-11T03:52:22.869Z,0
2016-12-11T03:53:03.386Z,0
2016-12-11T03:53:43.931Z,0
2016-12-11T03:54:24.464Z,0
2016-12-11T03:55:05.004Z,0
2016-12-11T03:55:45.534Z,0
2016-12-11T03:56:26.069Z,0
2016-12-11T03:57:06.595Z,0
2016-12-11T03:57:47.134Z,0
2016-12-11T03:58:27.666Z,0
2016-12-11T03:59:08.204Z,0
2016-12-11T03:59:48.732Z,0
2016-12-11T04:00:29.280Z,0
2016-12-11T04:01:09.823Z,0
2016-12-11T04:01:50.365Z,0
2016-12-11T04:02:30.902Z,0
2016-12-11T04:03:11.439Z,0
2016-12-11T04:03:51.971Z,0
2016-12-11T04:04:32.511Z,0
2016-12-11T04:05:13.048Z,0
2016-12-11T04:05:53.586Z,0
2016-12-11T04:06:34.126Z,0
2016-12-11T04:07:14.666Z,0
2016-12-11T04:07:55.193Z,0
2016-12-11T04:08:35.737Z,0
2016-12-11T04:09:16.272Z,0
2016-12-11T04:09:56.811Z,0
2016-12-11T04:10:37.346Z,0
2016-12-11T04:11:17.880Z,0
2016-12-11T04:11:58.413Z,0
2016-12-11T04:12:38.948Z,0
2016-12-11T04:13:19.484Z,0
2016-12-11T04:14:00.016Z,0
2016-12-11T04:14:40.554Z,0
2016-12-11T04:15:21.091Z,0
2016-12-11T04:16:01.628Z,0
2016-12-11T04:16:42.155Z,0
2016-12-11T04:17:22.706Z,0
2016-12-11T04:18:03.251Z,0
2016-12-11T04:18:43.791Z,0
2016-12-11T04:19:24.321Z,0
2016-12-11T04:20:04.864Z,0
2016-12-11T04:20:45.398Z,0
2016-12-11T04:21:25.940Z,0
2016-12-11T04:22:06.480Z,0
2016-12-11T04:22:47.067Z,0
2016-12-11T04:23:27.599Z,0
2016-12-11T04:24:08.142Z,0
2016-12-11T04:24:48.682Z,0
2016-12-11T04:25:29.220Z,0
2016-12-11T04:26:09.759Z,0
2016-12-11T04:26:50.293Z,0
2016-12-11T04:27:30.830Z,0
2016-12-11T04:28:11.367Z,0
2016-12-11T04:28:51.902Z,0
2016-12-11T04:29:32.449Z,0
2016-12-11T04:30:12.989Z,0
2016-12-11T04:30:53.526Z,0
2016-12-11T04:31:34.063Z,0
2016-12-11T04:32:14.627Z,0
2016-12-11T04:32:55.135Z,0
2016-12-11T04:33:35.665Z,0
2016-12-11T04:34:16.200Z,0
2016-12-11T04:34:56.732Z,0
2016-12-11T04:35:37.270Z,0
2016-12-11T04:36:17.858Z,0
2016-12-11T04:36:58.408Z,0
2016-12-11T04:37:38.935Z,0
2016-12-11T04:38:19.473Z,0
2016-12-11T04:39:00.010Z,0
2016-12-11T04:39:40.548Z,0
2016-12-11T04:40:21.079Z,0
2016-12-11T04:41:01.620Z,0
2016-12-11T04:41:42.163Z,0
2016-12-11T04:42:22.700Z,0
2016-12-11T04:43:03.237Z,0
2016-12-11T04:43:43.782Z,0
2016-12-11T04:44:24.322Z,0
2016-12-11T04:45:04.855Z,0
2016-12-11T04:45:45.396Z,0
2016-12-11T04:46:25.930Z,0
2016-12-11T04:47:06.473Z,0
2016-12-11T04:47:47.013Z,0
2016-12-11T04:48:27.544Z,0
2016-12-11T04:49:08.075Z,0
2016-12-11T04:49:48.609Z,0
2016-12-11T04:50:29.149Z,0
2016-12-11T04:51:09.687Z,0
2016-12-11T04:51:50.226Z,0
2016-12-11T04:52:30.767Z,0
2016-12-11T04:53:11.327Z,0
2016-12-11T04:53:51.859Z,0
2016-12-11T04:54:32.397Z,0
2016-12-11T04:55:12.933Z,0
2016-12-11T04:55:53.470Z,0
2016-12-11T04:56:34.013Z,0
2016-12-11T04:57:14.552Z,0
2016-12-11T04:57:55.084Z,0
2016-12-11T04:58:35.620Z,0
2016-12-11T04:59:16.156Z,0
2016-12-11T04:59:56.696Z,0
2016-12-11T05:00:37.237Z,0
2016-12-11T05:01:17.775Z,0
2016-12-11T05:01:58.305Z,0
2016-12-11T05:02:38.830Z,0
2016-12-11T05:03:19.368Z,0
2016-12-11T05:03:59.898Z,0
2016-12-11T05:04:40.441Z,0
2016-12-11T05:05:20.975Z,0
2016-12-11T05:06:01.501Z,0
2016-12-11T05:06:42.037Z,0
2016-12-11T05:07:22.581Z,0
2016-12-11T05:08:03.103Z,0
2016-12-11T05:08:43.657Z,0
2016-12-11T05:09:24.209Z,0
2016-12-11T05:10:04.746Z,0
2016-12-11T05:10:45.297Z,0
2016-12-11T05:11:25.847Z,0
2016-12-11T05:12:06.380Z,0
2016-12-11T05:12:46.915Z,0
2016-12-11T05:13:27.445Z,0
2016-12-11T05:14:07.981Z,0
2016-12-11T05:14:48.518Z,0
2016-12-11T05:15:29.052Z,0
2016-12-11T05:16:09.581Z,0
2016-12-11T05:16:50.130Z,0
2016-12-11T05:17:30.655Z,0
2016-12-11T05:18:11.192Z,0
2016-12-11T05:18:51.764Z,0
2016-12-11T05:19:32.301Z,0
2016-12-11T05:20:12.835Z,0
2016-12-11T05:20:53.373Z,0
2016-12-11T05:21:33.910Z,0
2016-12-11T05:22:14.452Z,0
2016-12-11T05:22:54.980Z,0
2016-12-11T05:23:35.517Z,0
2016-12-11T05:24:16.056Z,0
2016-12-11T05:24:56.592Z,0
2016-12-11T05:25:37.136Z,0
2016-12-11T05:26:17.673Z,0
2016-12-11T05:26:58.209Z,0
2016-12-11T05:27:38.746Z,0
2016-12-11T05:28:19.293Z,0
2016-12-11T05:28:59.817Z,0
2016-12-11T05:29:40.344Z,0
2016-12-11T05:30:20.880Z,0
2016-12-11T05:31:01.425Z,0
2016-12-11T05:31:41.970Z,0
2016-12-11T05:32:22.511Z,0
2016-12-11T05:33:03.065Z,0
2016-12-11T05:33:43.596Z,0
2016-12-11T05:34:24.142Z,0
2016-12-11T05:35:04.684Z,0
2016-12-11T05:35:45.216Z,0
2016-12-11T05:36:25.752Z,0
2016-12-11T05:37:06.287Z,0
2016-12-11T05:37:46.837Z,0
2016-12-11T05:38:27.372Z,0
2016-12-11T05:39:07.905Z,0
2016-12-11T05:39:48.438Z,0
2016-12-11T05:40:28.977Z,0
2016-12-11T05:41:09.514Z,0
2016-12-11T05:41:50.056Z,0
2016-12-11T05:42:30.591Z,0
2016-12-11T05:43:11.124Z,0
2016-12-11T05:43:51.668Z,0
2016-12-11T05:44:32.200Z,0
2016-12-11T05:45:12.733Z,0
2016-12-11T05:45:53.270Z,0
2016-12-11T05:46:33.809Z,0
2016-12-11T05:47:14.362Z,0
2016-12-11T05:47:54.898Z,0
2016-12-11T05:48:35.441Z,0
2016-12-11T05:49:15.978Z,0
2016-12-11T05:49:56.507Z,0
2016-12-11T05:50:37.045Z,0
2016-12-11T05:51:17.583Z,0
2016-12-11T05:51:58.120Z,0
2016-12-11T05:52:38.665Z,0
2016-12-11T05:53:19.201Z,0
2016-12-11T05:53:59.754Z,0
2016-12-11T05:54:40.351Z,0
2016-12-11T05:55:20.929Z,0
2016-12-11T05:56:01.528Z,0
2016-12-11T05:56:42.071Z,0
2016-12-11T05:57:22.605Z,0
2016-12-11T05:58:03.187Z,0
2016-12-11T05:58:43.722Z,0
2016-12-11T05:59:24.258Z,0
2016-12-11T06:00:04.800Z,0
2016-12-11T06:00:45.338Z,0
2016-12-11T06:01:25.874Z,0
2016-12-11T06:02:06.410Z,0
2016-12-11T06:02:46.950Z,0
2016-12-11T06:03:27.471Z,0
2016-12-11T06:04:08.006Z,0
2016-12-11T06:04:48.577Z,0
2016-12-11T06:05:29.123Z,0
2016-12-11T06:06:09.659Z,0
2016-12-11T06:06:50.200Z,0
2016-12-11T06:07:30.722Z,0
2016-12-11T06:08:11.265Z,0
2016-12-11T06:08:51.796Z,0
2016-12-11T06:09:32.350Z,0
2016-12-11T06:10:12.886Z,0
2016-12-11T06:10:53.832Z,0
2016-12-11T06:11:34.802Z,0
2016-12-11T06:12:15.775Z,0
2016-12-11T06:12:56.401Z,0
2016-12-11T06:13:37.129Z,0
2016-12-11T06:14:17.965Z,0
2016-12-11T06:14:58.560Z,0
2016-12-11T06:15:39.107Z,0
2016-12-11T06:16:19.647Z,0
2016-12-11T06:17:00.284Z,0
2016-12-11T06:17:40.863Z,0
2016-12-11T06:18:21.471Z,0
2016-12-11T06:19:02.121Z,0
2016-12-11T06:19:42.655Z,0
2016-12-11T06:20:23.194Z,0
2016-12-11T06:21:03.969Z,0
2016-12-11T06:21:44.648Z,0
2016-12-11T06:22:25.410Z,0
2016-12-11T06:23:06.102Z,0
2016-12-11T06:23:46.689Z,0
2016-12-11T06:24:27.225Z,0
2016-12-11T06:25:07.766Z,0
2016-12-11T06:25:48.300Z,0
2016-12-11T06:26:28.836Z,0
2016-12-11T06:27:09.380Z,0
2016-12-11T06:27:49.916Z,0
2016-12-11T06:28:30.450Z,0
2016-12-11T06:29:10.983Z,0
2016-12-11T06:29:51.523Z,0
2016-12-11T06:30:32.059Z,0
2016-12-11T06:31:12.588Z,0
2016-12-11T06:31:53.129Z,0
2016-12-11T06:32:33.668Z,0
2016-12-11T06:33:14.206Z,0
2016-12-11T06:33:54.740Z,0
2016-12-11T06:34:35.300Z,0
2016-12-11T06:35:15.863Z,0
2016-12-11T06:35:56.398Z,0
2016-12-11T06:36:36.925Z,0
2016-12-11T06:37:17.460Z,0
2016-12-11T06:37:57.995Z,0
2016-12-11T06:38:38.527Z,0
2016-12-11T06:39:19.066Z,0
2016-12-11T06:39:59.636Z,0
2016-12-11T06:40:40.176Z,0
2016-12-11T06:41:20.711Z,0
2016-12-11T06:42:01.290Z,0
2016-12-11T06:42:41.834Z,0
2016-12-11T06:43:22.538Z,0
2016-12-11T06:44:03.136Z,0
2016-12-11T06:44:43.669Z,0
2016-12-11T06:45:24.207Z,0
2016-12-11T06:46:04.790Z,0
2016-12-11T06:46:45.331Z,0
2016-12-11T06:47:26.055Z,0
2016-12-11T06:48:06.751Z,0
2016-12-11T06:48:47.447Z,0
2016-12-11T06:49:27.990Z,0
2016-12-11T06:50:08.690Z,0
2016-12-11T06:50:49.224Z,0
2016-12-11T06:51:29.833Z,0
2016-12-11T06:52:10.515Z,0
2016-12-11T06:52:51.048Z,0
2016-12-11T06:53:31.922Z,0
2016-12-11T06:54:12.594Z,0
2016-12-11T06:54:53.475Z,0
2016-12-11T06:55:34.289Z,0
2016-12-11T06:56:14.826Z,0
2016-12-11T06:56:55.343Z,0
2016-12-11T06:57:35.877Z,0
2016-12-11T06:58:16.579Z,0
2016-12-11T06:58:57.288Z,0
2016-12-11T06:59:37.922Z,0
2016-12-11T07:00:18.672Z,0
2016-12-11T07:00:59.233Z,0
2016-12-11T07:01:40.017Z,0
2016-12-11T07:02:20.743Z,0
2016-12-11T07:03:01.464Z,0
2016-12-11T07:03:42.220Z,4
2016-12-11T07:04:22.936Z,4
2016-12-11T07:05:03.475Z,4
2016-12-11T07:05:44.406Z,4
2016-12-11T07:06:24.947Z,0
2016-12-11T07:07:05.473Z,4
2016-12-11T07:07:46.025Z,4
2016-12-11T07:08:26.559Z,8
2016-12-11T07:09:07.106Z,4
2016-12-11T07:09:47.634Z,4
2016-12-11T07:10:28.170Z,8
2016-12-11T07:11:08.713Z,4
2016-12-11T07:11:49.303Z,8
2016-12-11T07:12:29.848Z,8
2016-12-11T07:13:10.393Z,12
2016-12-11T07:13:50.934Z,12
2016-12-11T07:14:31.467Z,16
2016-12-11T07:15:12.251Z,20
2016-12-11T07:15:52.794Z,20
2016-12-11T07:16:33.323Z,24
2016-12-11T07:17:13.861Z,24
2016-12-11T07:17:54.387Z,24
2016-12-11T07:18:34.926Z,24
2016-12-11T07:19:15.468Z,28
2016-12-11T07:19:56.001Z,24
2016-12-11T07:20:36.535Z,20
2016-12-11T07:21:17.075Z,20
2016-12-11T07:21:57.771Z,28
2016-12-11T07:22:38.300Z,36
2016-12-11T07:23:18.841Z,48
2016-12-11T07:23:59.378Z,48
2016-12-11T07:24:39.904Z,56
2016-12-11T07:25:20.455Z,52
2016-12-11T07:26:00.994Z,52
2016-12-11T07:26:41.529Z,44
2016-12-11T07:27:22.061Z,36
2016-12-11T07:28:02.592Z,44
2016-12-11T07:28:43.133Z,60
2016-12-11T07:29:23.831Z,68
2016-12-11T07:30:04.366Z,80
2016-12-11T07:30:44.901Z,96
2016-12-11T07:31:25.441Z,108
2016-12-11T07:32:05.975Z,116
2016-12-11T07:32:46.508Z,112
2016-12-11T07:33:27.043Z,104
2016-12-11T07:34:07.575Z,116
2016-12-11T07:34:48.110Z,128
2016-12-11T07:35:28.879Z,132
2016-12-11T07:36:09.419Z,128
2016-12-11T07:36:49.961Z,124
2016-12-11T07:37:30.502Z,132
2016-12-11T07:38:11.035Z,124
2016-12-11T07:38:51.698Z,136
2016-12-11T07:39:32.278Z,132
2016-12-11T07:40:12.818Z,132
2016-12-11T07:40:53.354Z,116
2016-12-11T07:41:33.939Z,104
2016-12-11T07:42:14.475Z,116
2016-12-11T07:42:55.021Z,132
2016-12-11T07:43:36.331Z,156
2016-12-11T07:44:17.302Z,176
2016-12-11T07:44:57.837Z,164
2016-12-11T07:45:38.361Z,168
2016-12-11T07:46:18.901Z,184
2016-12-11T07:46:59.442Z,220
2016-12-11T07:47:39.971Z,248
2016-12-11T07:48:20.509Z,204
2016-12-11T07:49:01.055Z,204
2016-12-11T07:49:41.591Z,244
2016-12-11T07:50:22.118Z,228
2016-12-11T07:51:02.670Z,236
2016-12-11T07:51:43.210Z,208
2016-12-11T07:52:23.742Z,224
2016-12-11T07:53:04.291Z,252
2016-12-11T07:53:44.802Z,220
2016-12-11T07:54:25.339Z,188
2016-12-11T07:55:05.874Z,188
2016-12-11T07:55:46.410Z,208
2016-12-11T07:56:26.949Z,188
2016-12-11T07:57:07.473Z,160
2016-12-11T07:57:48.005Z,160
2016-12-11T07:58:28.559Z,140
2016-12-11T07:59:09.064Z,140
2016-12-11T07:59:49.608Z,196
2016-12-11T08:00:30.146Z,164
2016-12-11T08:01:10.686Z,128
2016-12-11T08:01:51.226Z,120
2016-12-11T08:02:31.744Z,132
2016-12-11T08:03:12.275Z,144
2016-12-11T08:03:52.990Z,152
2016-12-11T08:04:33.524Z,152
2016-12-11T08:05:14.061Z,148
2016-12-11T08:05:54.631Z,136
2016-12-11T08:06:35.161Z,136
2016-12-11T08:07:15.691Z,144
2016-12-11T08:07:56.225Z,132
2016-12-11T08:08:36.758Z,148
2016-12-11T08:09:17.295Z,160
2016-12-11T08:09:57.832Z,176
2016-12-11T08:10:38.385Z,168
2016-12-11T08:11:18.907Z,184
2016-12-11T08:11:59.425Z,192
2016-12-11T08:12:40.007Z,220
2016-12-11T08:13:20.543Z,236
2016-12-11T08:14:01.078Z,248
2016-12-11T08:14:41.617Z,240
2016-12-11T08:15:22.139Z,228
2016-12-11T08:16:02.690Z,268
2016-12-11T08:16:43.244Z,292
2016-12-11T08:17:23.789Z,320
2016-12-11T08:18:04.317Z,348
2016-12-11T08:18:44.842Z,304
2016-12-11T08:19:25.375Z,296
2016-12-11T08:20:05.903Z,332
2016-12-11T08:20:46.454Z,332
2016-12-11T08:21:26.998Z,360
2016-12-11T08:22:07.538Z,368
2016-12-11T08:22:48.068Z,304
2016-12-11T08:23:28.599Z,288
2016-12-11T08:24:09.137Z,284
2016-12-11T08:24:49.668Z,352
2016-12-11T08:25:30.201Z,388
2016-12-11T08:26:10.719Z,324
2016-12-11T08:26:51.239Z,292
2016-12-11T08:27:31.783Z,296
2016-12-11T08:28:12.332Z,308
2016-12-11T08:28:53.027Z,268
2016-12-11T08:29:33.556Z,244
2016-12-11T08:30:14.088Z,312
2016-12-11T08:30:54.636Z,444
2016-12-11T08:31:35.167Z,528
2016-12-11T08:32:15.698Z,584
2016-12-11T08:32:56.227Z,532
2016-12-11T08:33:36.765Z,536
2016-12-11T08:34:17.292Z,568
2016-12-11T08:34:57.836Z,596
2016-12-11T08:35:38.365Z,624
2016-12-11T08:36:18.907Z,660
2016-12-11T08:36:59.452Z,692
2016-12-11T08:37:39.983Z,708
2016-12-11T08:38:20.520Z,720
2016-12-11T08:39:01.051Z,780
2016-12-11T08:39:41.578Z,784
2016-12-11T08:40:22.111Z,728
2016-12-11T08:41:02.754Z,792
2016-12-11T08:41:43.275Z,792
2016-12-11T08:42:23.803Z,816
2016-12-11T08:43:04.332Z,748
2016-12-11T08:43:44.876Z,712
2016-12-11T08:44:25.409Z,676
2016-12-11T08:45:05.946Z,688
2016-12-11T08:45:46.498Z,668
2016-12-11T08:46:27.002Z,592
2016-12-11T08:47:07.544Z,520
2016-12-11T08:47:48.081Z,460
2016-12-11T08:48:28.622Z,476
2016-12-11T08:49:09.158Z,496
2016-12-11T08:49:49.690Z,468
2016-12-11T08:50:30.214Z,388
2016-12-11T08:51:10.756Z,384
2016-12-11T08:51:51.296Z,420
2016-12-11T08:52:31.818Z,560
2016-12-11T08:53:12.356Z,608
2016-12-11T08:53:52.958Z,660
2016-12-11T08:54:33.486Z,588
2016-12-11T08:55:14.019Z,592
2016-12-11T08:55:54.548Z,660
2016-12-11T08:56:35.086Z,604
2016-12-11T08:57:15.616Z,708
2016-12-11T08:57:56.150Z,756
2016-12-11T08:58:36.674Z,712
2016-12-11T08:59:17.201Z,752
2016-12-11T08:59:57.729Z,948
2016-12-11T09:00:38.251Z,856
2016-12-11T09:01:18.797Z,768
2016-12-11T09:01:59.321Z,688
2016-12-11T09:02:39.853Z,656
2016-12-11T09:03:20.444Z,884
2016-12-11T09:04:00.978Z,896
2016-12-11T09:04:41.536Z,888
2016-12-11T09:05:22.067Z,1004
2016-12-11T09:06:02.617Z,1048
2016-12-11T09:06:43.139Z,892
2016-12-11T09:07:23.684Z,920
2016-12-11T09:08:04.223Z,868
2016-12-11T09:08:44.761Z,932
2016-12-11T09:09:25.293Z,836
2016-12-11T09:10:05.810Z,1004
2016-12-11T09:10:46.347Z,948
2016-12-11T09:11:26.872Z,792
2016-12-11T09:12:07.425Z,668
2016-12-11T09:12:47.963Z,700
2016-12-11T09:13:28.625Z,888
2016-12-11T09:14:09.167Z,1292
2016-12-11T09:14:49.704Z,1336
2016-12-11T09:15:30.246Z,1308
2016-12-11T09:16:10.786Z,1148
2016-12-11T09:16:51.520Z,1148
2016-12-11T09:17:32.045Z,1220
2016-12-11T09:18:12.580Z,1104
2016-12-11T09:18:53.118Z,1172
2016-12-11T09:19:33.654Z,1336
2016-12-11T09:20:14.199Z,1424
2016-12-11T09:20:54.721Z,1648
2016-12-11T09:21:35.228Z,1916
2016-12-11T09:22:15.778Z,2036
2016-12-11T09:22:56.317Z,2024
2016-12-11T09:23:36.982Z,1956
2016-12-11T09:24:17.523Z,1752
2016-12-11T09:24:58.055Z,2032
2016-12-11T09:25:38.613Z,1704
2016-12-11T09:26:19.153Z,1836
2016-12-11T09:26:59.695Z,1644
2016-12-11T09:27:40.326Z,1980
2016-12-11T09:28:20.940Z,2092
2016-12-11T09:29:01.479Z,2196
2016-12-11T09:29:42.007Z,2412
2016-12-11T09:30:22.547Z,2648
2016-12-11T09:31:03.089Z,3064
2016-12-11T09:31:43.611Z,3260
2016-12-11T09:32:24.163Z,3056
2016-12-11T09:33:04.701Z,2788
2016-12-11T09:33:45.247Z,2440
2016-12-11T09:34:25.787Z,2420
2016-12-11T09:35:06.327Z,2588
2016-12-11T09:35:46.864Z,2784
2016-12-11T09:36:27.397Z,3124
2016-12-11T09:38:46.727Z,3192
2016-12-11T09:39:27.268Z,2864
2016-12-11T09:40:07.817Z,2876
2016-12-11T09:40:48.337Z,3092
2016-12-11T09:41:28.872Z,3160
2016-12-11T09:42:09.390Z,3464
2016-12-11T09:42:49.919Z,3412
2016-12-11T09:43:30.442Z,3736
2016-12-11T09:44:10.970Z,3184
2016-12-11T09:44:51.499Z,2868
2016-12-11T09:45:32.036Z,2684
2016-12-11T09:46:12.573Z,2760
2016-12-11T09:46:53.120Z,2348
2016-12-11T09:47:33.638Z,2268
2016-12-11T09:48:14.167Z,2404
2016-12-11T09:48:54.710Z,2588
2016-12-11T09:49:35.216Z,2512
2016-12-11T09:50:15.747Z,2616
2016-12-11T09:50:56.243Z,2548
2016-12-11T09:51:36.755Z,2868
2016-12-11T09:52:17.287Z,3356
2016-12-11T09:52:57.861Z,3692
2016-12-11T09:53:38.386Z,3480
2016-12-11T09:54:18.881Z,3352
2016-12-11T09:54:59.431Z,3340
2016-12-11T09:55:39.942Z,3232
2016-12-11T09:56:20.452Z,3248
2016-12-11T09:57:01.001Z,2928
2016-12-11T09:57:41.550Z,2648
2016-12-11T09:58:22.048Z,2460
2016-12-11T09:59:02.562Z,2212
2016-12-11T09:59:43.076Z,2132
2016-12-11T10:00:23.593Z,2156
2016-12-11T10:01:04.146Z,2404
2016-12-11T10:01:44.693Z,2488
2016-12-11T10:02:25.222Z,2600
2016-12-11T10:03:05.777Z,2556
2016-12-11T10:03:46.304Z,2436
2016-12-11T10:04:26.833Z,2556
2016-12-11T10:05:07.362Z,2868
2016-12-11T10:05:47.884Z,2476
2016-12-11T10:06:28.401Z,2036
2016-12-11T10:07:08.942Z,1908
2016-12-11T10:07:49.482Z,2196
2016-12-11T10:08:29.999Z,2296
2016-12-11T10:09:10.517Z,1948
2016-12-11T10:09:51.100Z,2096
2016-12-11T10:10:31.579Z,2824
2016-12-11T10:11:12.120Z,2272
2016-12-11T10:11:52.646Z,1800
2016-12-11T10:12:33.168Z,1440
2016-12-11T10:13:13.698Z,1536
2016-12-11T10:13:54.225Z,2300
2016-12-11T10:14:34.744Z,2620